Time;durP1;ratioP1;P1;durP2;ratioP2;P2;SDS_P1;SDS_P2;PMS_P1;PMS_P2;Temp;Humidity;BMP_temperature;BMP_pressure;BME280_temperature;BME280_humidity;BME280_pressure;Samples;Min_cycle;Max_cycle;Signal;HPM_P1;HPM_P2
2022/05/24 00:00:00;;;;;;;31.13;13.30;;;13.80;99.90;;;;;;4874779;29;20085;-60
2022/05/24 00:02:27;;;;;;;36.72;18.13;;;13.70;99.90;;;;;;4890187;29;20033;-59
2022/05/24 00:04:52;;;;;;;35.90;19.30;;;13.80;99.90;;;;;;4891092;29;20092;-60
2022/05/24 00:07:18;;;;;;;37.80;20.42;;;13.70;99.90;;;;;;4890954;29;20041;-60
2022/05/24 00:09:44;;;;;;;46.20;19.75;;;13.80;99.90;;;;;;4875055;29;20032;-60
2022/05/24 00:12:10;;;;;;;45.13;22.92;;;13.80;99.90;;;;;;4892870;29;20028;-61
2022/05/24 00:17:19;;;;;;;45.08;23.45;;;13.80;99.90;;;;;;4894376;29;20413;-60
2022/05/24 00:19:45;;;;;;;48.28;23.42;;;13.70;99.90;;;;;;4890766;29;20040;-60
2022/05/24 00:22:11;;;;;;;48.67;23.33;;;13.70;99.90;;;;;;4892149;29;20029;-60
2022/05/24 00:24:37;;;;;;;44.85;23.83;;;13.70;99.90;;;;;;4893135;29;20040;-60
2022/05/24 00:27:03;;;;;;;44.47;22.80;;;13.70;99.90;;;;;;4893508;29;20072;-60
2022/05/24 00:29:28;;;;;;;46.33;22.90;;;13.70;99.90;;;;;;4892444;29;20028;-60
2022/05/24 00:31:54;;;;;;;45.78;22.20;;;13.80;99.90;;;;;;4873511;29;20362;-61
2022/05/24 00:34:19;;;;;;;43.55;22.00;;;13.70;99.90;;;;;;4890458;29;20065;-60
2022/05/24 00:36:45;;;;;;;44.47;20.58;;;13.70;99.90;;;;;;4892840;29;20401;-61
2022/05/24 00:39:11;;;;;;;40.90;20.50;;;13.80;99.90;;;;;;4884286;29;20067;-60
2022/05/24 00:41:57;;;;;;;43.30;21.73;;;13.70;99.90;;;;;;4876895;29;20435;-61
2022/05/24 00:44:36;;;;;;;49.03;22.25;;;13.70;99.90;;;;;;4891076;29;20029;-60
2022/05/24 00:47:15;;;;;;;43.42;21.90;;;13.80;99.90;;;;;;4892052;29;20128;-60
2022/05/24 00:50:16;;;;;;;45.42;21.83;;;13.70;99.90;;;;;;4875652;29;20028;-61
2022/05/24 00:53:01;;;;;;;41.67;20.45;;;13.80;99.90;;;;;;4891525;29;20033;-60
2022/05/24 00:55:34;;;;;;;47.45;23.17;;;13.90;99.90;;;;;;4888392;29;20107;-60
2022/05/24 00:58:23;;;;;;;38.45;19.58;;;13.80;99.90;;;;;;4891893;29;20029;-60
2022/05/24 01:00:49;;;;;;;34.88;16.80;;;13.80;99.90;;;;;;4891044;29;20040;-61
2022/05/24 01:03:15;;;;;;;36.35;17.58;;;13.90;99.90;;;;;;4891836;29;20111;-60
2022/05/24 01:05:42;;;;;;;36.15;18.38;;;13.90;99.90;;;;;;4891834;29;20052;-60
2022/05/24 01:08:10;;;;;;;37.70;19.70;;;13.80;99.90;;;;;;4887149;29;20044;-62
2022/05/24 01:10:50;;;;;;;34.60;18.30;;;13.80;99.90;;;;;;4891972;29;20080;-61
2022/05/24 01:13:21;;;;;;;40.75;19.88;;;13.80;99.90;;;;;;4893649;29;20441;-61
2022/05/24 01:15:47;;;;;;;36.13;17.95;;;13.80;99.90;;;;;;4889850;29;20032;-60
2022/05/24 01:18:14;;;;;;;37.95;17.88;;;13.90;99.90;;;;;;4891001;29;20110;-61
2022/05/24 01:20:43;;;;;;;38.80;17.52;;;13.80;99.90;;;;;;4894402;29;20119;-60
2022/05/24 01:23:22;;;;;;;33.60;17.10;;;13.90;99.90;;;;;;4895434;29;20582;-60
2022/05/24 01:26:24;;;;;;;36.85;17.67;;;13.80;99.90;;;;;;4894019;29;20389;-60
2022/05/24 01:28:55;;;;;;;38.95;16.60;;;13.90;99.90;;;;;;4894329;29;20127;-61
2022/05/24 01:31:23;;;;;;;35.50;17.65;;;13.90;99.90;;;;;;4893991;29;20027;-60
2022/05/24 01:36:38;;;;;;;38.78;16.55;;;13.90;99.90;;;;;;4896481;29;20076;-61
2022/05/24 01:39:07;;;;;;;32.80;16.65;;;13.90;99.90;;;;;;4896422;29;20020;-60
2022/05/24 01:41:47;;;;;;;31.02;15.82;;;13.90;99.90;;;;;;4894819;29;20382;-61
2022/05/24 01:44:37;;;;;;;29.00;15.65;;;13.80;99.90;;;;;;4890753;29;20039;-60
2022/05/24 01:47:02;;;;;;;29.80;14.63;;;13.90;99.90;;;;;;4893984;29;20481;-60
2022/05/24 01:49:33;;;;;;;29.55;15.32;;;13.90;99.90;;;;;;4896838;29;20456;-60
2022/05/24 01:52:04;;;;;;;30.92;14.00;;;13.80;99.90;;;;;;4895896;29;20021;-60
2022/05/24 01:54:32;;;;;;;31.08;14.35;;;13.90;99.90;;;;;;4894168;29;20079;-61
2022/05/24 01:57:12;;;;;;;31.65;15.40;;;13.70;99.90;;;;;;4893266;29;20067;-60
2022/05/24 01:59:42;;;;;;;29.13;16.05;;;13.90;99.90;;;;;;4894571;29;20079;-60
2022/05/24 02:02:07;;;;;;;33.05;15.00;;;13.80;99.90;;;;;;4894386;29;20040;-60
2022/05/24 02:04:34;;;;;;;26.08;14.48;;;13.80;99.90;;;;;;4894415;29;20051;-60
2022/05/24 02:07:01;;;;;;;30.67;16.00;;;13.80;99.90;;;;;;4894402;29;20217;-60
2022/05/24 02:09:27;;;;;;;32.60;15.93;;;13.80;99.90;;;;;;4893250;29;20025;-61
2022/05/24 02:11:54;;;;;;;30.38;15.25;;;13.80;99.90;;;;;;4894329;29;20024;-61
2022/05/24 02:14:26;;;;;;;30.42;15.77;;;13.70;99.90;;;;;;4895770;29;20035;-60
2022/05/24 02:17:06;;;;;;;33.55;16.95;;;13.80;99.90;;;;;;4898195;29;20024;-61
2022/05/24 02:19:35;;;;;;;34.75;18.08;;;13.80;99.90;;;;;;4893961;29;20040;-61
2022/05/24 02:22:08;;;;;;;37.60;17.20;;;13.80;99.90;;;;;;4892843;29;20033;-60
2022/05/24 02:24:34;;;;;;;34.55;17.83;;;13.90;99.90;;;;;;4895084;29;20371;-61
2022/05/24 02:27:01;;;;;;;34.15;18.38;;;13.90;99.90;;;;;;4894324;29;20040;-60
2022/05/24 02:29:26;;;;;;;39.47;20.60;;;13.90;99.90;;;;;;4893133;29;20048;-60
2022/05/24 02:31:52;;;;;;;41.55;20.13;;;13.80;99.90;;;;;;4892507;29;20088;-61
2022/05/24 02:34:18;;;;;;;42.75;19.90;;;13.90;99.90;;;;;;4891273;29;20477;-60
2022/05/24 02:36:44;;;;;;;43.08;20.67;;;13.90;99.90;;;;;;4893144;29;20445;-61
2022/05/24 02:39:10;;;;;;;38.78;18.42;;;13.90;99.90;;;;;;4892706;29;20036;-60
2022/05/24 02:41:36;;;;;;;40.70;19.65;;;13.90;99.90;;;;;;4876771;29;20043;-61
2022/05/24 02:44:13;;;;;;;40.72;20.42;;;13.90;99.90;;;;;;4892905;29;20043;-60
2022/05/24 02:46:41;;;;;;;39.75;19.05;;;13.90;99.90;;;;;;4892905;29;20200;-60
2022/05/24 02:49:07;;;;;;;39.72;17.95;;;13.90;99.90;;;;;;4892244;29;20029;-61
2022/05/24 02:51:33;;;;;;;42.08;18.40;;;13.90;99.90;;;;;;4892910;29;20319;-60
2022/05/24 02:54:00;;;;;;;37.97;18.92;;;14.00;99.90;;;;;;4892645;29;20552;-60
2022/05/24 02:56:26;;;;;;;41.15;19.00;;;14.00;99.90;;;;;;4895788;29;20031;-61
2022/05/24 02:58:52;;;;;;;38.65;18.17;;;13.90;99.90;;;;;;4895007;29;20021;-60
2022/05/24 03:01:21;;;;;;;39.67;19.98;;;14.00;99.90;;;;;;4895301;29;20037;-60
2022/05/24 03:03:49;;;;;;;40.40;19.38;;;13.90;99.90;;;;;;4893290;29;20076;-60
2022/05/24 03:06:15;;;;;;;42.38;20.60;;;13.90;99.90;;;;;;4895680;29;20121;-60
2022/05/24 03:11:25;;;;;;;38.00;18.83;;;14.00;99.90;;;;;;4895598;29;20096;-60
2022/05/24 03:16:35;;;;;;;40.83;19.60;;;14.00;99.90;;;;;;4895237;29;20032;-60
2022/05/24 03:19:00;;;;;;;39.95;18.50;;;13.90;99.90;;;;;;4895259;29;20493;-60
2022/05/24 03:21:26;;;;;;;38.85;18.58;;;14.00;99.90;;;;;;4895009;29;20455;-60
2022/05/24 03:23:52;;;;;;;37.67;19.48;;;14.10;99.90;;;;;;4891831;29;20052;-61
2022/05/24 03:26:18;;;;;;;34.38;18.15;;;14.10;99.90;;;;;;4891867;29;20452;-60
2022/05/24 03:28:46;;;;;;;38.38;17.45;;;14.10;99.90;;;;;;4893575;29;20056;-61
2022/05/24 03:31:13;;;;;;;38.58;19.13;;;14.10;99.90;;;;;;4891231;29;20048;-59
2022/05/24 03:33:38;;;;;;;27.23;13.05;;;14.00;99.90;;;;;;4890670;29;20116;-61
2022/05/24 03:36:04;;;;;;;33.03;15.88;;;14.10;99.90;;;;;;4890999;29;20486;-60
2022/05/24 03:38:30;;;;;;;35.67;16.55;;;14.00;99.90;;;;;;4891469;29;20043;-60
2022/05/24 03:40:56;;;;;;;31.38;16.45;;;13.90;99.90;;;;;;4870209;29;20040;-61
2022/05/24 03:43:22;;;;;;;30.27;15.77;;;13.90;99.90;;;;;;4890700;29;20405;-60
2022/05/24 03:45:48;;;;;;;28.65;14.20;;;13.90;99.90;;;;;;4890830;29;20047;-60
2022/05/24 03:48:14;;;;;;;29.40;14.23;;;13.80;99.90;;;;;;4890714;29;20444;-61
2022/05/24 03:50:40;;;;;;;31.85;15.85;;;13.80;99.90;;;;;;4891461;29;20040;-60
2022/05/24 03:53:05;;;;;;;27.08;13.60;;;13.80;99.90;;;;;;4891746;29;20033;-60
2022/05/24 03:55:31;;;;;;;30.02;15.60;;;13.80;99.90;;;;;;4891669;29;20028;-60
2022/05/24 03:58:00;;;;;;;27.95;15.05;;;13.80;99.90;;;;;;4874365;29;20032;-60
2022/05/24 04:00:37;;;;;;;25.98;13.32;;;13.80;99.90;;;;;;4891414;29;20438;-60
2022/05/24 04:03:04;;;;;;;25.83;13.43;;;13.80;99.90;;;;;;4891860;29;20469;-60
2022/05/24 04:05:31;;;;;;;23.17;11.10;;;13.80;99.90;;;;;;4894235;29;20040;-60
2022/05/24 04:07:58;;;;;;;24.67;11.05;;;13.80;99.90;;;;;;4893982;29;20037;-59
2022/05/24 04:10:25;;;;;;;23.20;11.50;;;13.70;99.90;;;;;;4894365;29;20064;-61
2022/05/24 04:12:51;;;;;;;19.90;10.68;;;13.70;99.90;;;;;;4894287;29;20055;-60
2022/05/24 04:15:17;;;;;;;22.70;11.40;;;13.70;99.90;;;;;;4893571;29;20021;-61
2022/05/24 04:17:43;;;;;;;14.80;7.15;;;13.60;99.90;;;;;;4896908;29;20084;-60
2022/05/24 04:20:09;;;;;;;22.77;9.75;;;13.60;99.90;;;;;;4893943;29;20417;-60
2022/05/24 04:22:35;;;;;;;22.77;7.57;;;13.60;99.90;;;;;;4894281;29;20057;-60
2022/05/24 04:25:01;;;;;;;14.38;7.80;;;13.60;99.90;;;;;;4893791;29;20212;-60
2022/05/24 04:27:27;;;;;;;18.55;8.23;;;13.50;99.90;;;;;;4893086;29;20393;-60
2022/05/24 04:29:53;;;;;;;19.85;7.38;;;13.60;99.90;;;;;;4893991;29;20021;-60
2022/05/24 04:32:19;;;;;;;15.50;8.02;;;13.50;99.90;;;;;;4893800;29;20455;-60
2022/05/24 04:34:45;;;;;;;17.95;7.88;;;13.50;99.90;;;;;;4889557;29;20485;-60
2022/05/24 04:37:12;;;;;;;17.13;6.60;;;13.50;99.90;;;;;;4890278;29;20036;-60
2022/05/24 04:39:38;;;;;;;19.33;8.48;;;13.40;99.90;;;;;;4875399;29;20037;-60
2022/05/24 04:42:19;;;;;;;16.55;7.35;;;13.40;99.90;;;;;;4890509;29;20032;-60
2022/05/24 04:44:47;;;;;;;18.30;8.02;;;13.40;99.90;;;;;;4890907;29;20115;-60
2022/05/24 04:47:13;;;;;;;16.90;7.53;;;13.30;99.90;;;;;;4889997;29;20091;-60
2022/05/24 04:49:46;;;;;;;14.68;7.38;;;13.40;99.90;;;;;;4873883;29;20061;-59
2022/05/24 04:52:13;;;;;;;19.45;6.80;;;13.40;99.90;;;;;;4887575;29;20052;-60
2022/05/24 04:54:40;;;;;;;17.90;6.90;;;13.40;99.90;;;;;;4893343;29;20092;-60
2022/05/24 04:57:08;;;;;;;18.58;7.43;;;13.40;99.90;;;;;;4894236;29;20116;-60
2022/05/24 04:59:33;;;;;;;18.45;6.85;;;13.40;99.90;;;;;;4894949;29;20036;-60
2022/05/24 05:01:59;;;;;;;16.67;6.50;;;13.40;99.90;;;;;;4894001;29;20029;-59
2022/05/24 05:04:25;;;;;;;10.55;4.82;;;13.40;99.90;;;;;;4892674;29;20120;-60
2022/05/24 05:06:51;;;;;;;16.17;5.75;;;13.40;99.90;;;;;;4894484;29;20548;-60
2022/05/24 05:09:18;;;;;;;12.85;5.30;;;13.40;99.90;;;;;;4894741;29;20052;-60
2022/05/24 05:11:44;;;;;;;16.88;6.50;;;13.40;99.90;;;;;;4897389;29;20024;-60
2022/05/24 05:14:10;;;;;;;11.98;5.35;;;13.40;99.90;;;;;;4896714;29;20556;-60
2022/05/24 05:16:37;;;;;;;10.77;5.28;;;13.40;99.90;;;;;;4897459;29;20108;-61
2022/05/24 05:19:05;;;;;;;13.75;5.63;;;13.40;99.90;;;;;;4897470;29;20028;-60
2022/05/24 05:21:32;;;;;;;10.90;4.55;;;13.30;99.90;;;;;;4897195;29;20100;-61
2022/05/24 05:23:59;;;;;;;13.80;5.32;;;;;;;;;;4864716;29;20448;-60
2022/05/24 05:26:24;;;;;;;14.98;5.68;;;13.10;99.90;;;;;;4897149;29;20031;-60
2022/05/24 05:28:51;;;;;;;14.10;5.80;;;13.10;99.90;;;;;;4897085;29;20544;-60
2022/05/24 05:31:17;;;;;;;15.32;6.40;;;13.10;99.90;;;;;;4896312;29;20899;-60
2022/05/24 05:33:43;;;;;;;13.13;4.90;;;13.00;99.90;;;;;;4895114;29;20041;-60
2022/05/24 05:36:09;;;;;;;13.85;5.15;;;12.90;99.90;;;;;;4896534;29;20033;-60
2022/05/24 05:38:36;;;;;;;11.02;5.50;;;12.80;99.90;;;;;;4896781;29;20028;-60
2022/05/24 05:41:02;;;;;;;13.07;5.03;;;12.80;99.90;;;;;;4895019;29;20504;-60
2022/05/24 05:43:27;;;;;;;13.32;4.97;;;12.70;99.90;;;;;;4894186;29;20024;-61
2022/05/24 05:46:00;;;;;;;11.43;5.13;;;12.70;99.90;;;;;;4895021;29;20059;-59
2022/05/24 05:48:26;;;;;;;13.23;5.18;;;12.60;99.90;;;;;;4894076;29;20036;-59
2022/05/24 05:50:52;;;;;;;8.43;3.47;;;12.50;99.90;;;;;;4893841;29;20052;-60
2022/05/24 05:53:19;;;;;;;11.98;4.75;;;12.40;99.90;;;;;;4893552;29;20472;-60
2022/05/24 05:55:45;;;;;;;15.70;5.00;;;12.40;99.90;;;;;;4894069;29;20067;-60
2022/05/24 05:58:12;;;;;;;13.27;4.55;;;12.40;99.90;;;;;;4893339;29;20056;-61
2022/05/24 06:00:39;;;;;;;15.35;5.03;;;12.40;99.90;;;;;;4893631;29;20095;-60
2022/05/24 06:03:05;;;;;;;12.93;5.07;;;12.20;99.90;;;;;;4891076;29;20127;-60
2022/05/24 06:05:31;;;;;;;15.25;5.43;;;12.20;99.90;;;;;;4876300;29;20120;-60
2022/05/24 06:07:57;;;;;;;12.65;4.72;;;;;;;;;;4893709;29;20073;-60
2022/05/24 06:10:23;;;;;;;14.73;5.15;;;12.30;99.90;;;;;;4891914;29;20335;-60
2022/05/24 06:12:51;;;;;;;11.18;5.20;;;12.20;99.90;;;;;;4892570;29;20499;-60
2022/05/24 06:15:17;;;;;;;12.32;5.05;;;12.20;99.90;;;;;;4891629;29;20560;-60
2022/05/24 06:17:44;;;;;;;15.55;6.22;;;12.30;99.90;;;;;;4897619;29;20028;-60
2022/05/24 06:20:10;;;;;;;14.50;5.63;;;12.20;99.90;;;;;;4894744;29;20085;-60
2022/05/24 06:22:35;;;;;;;11.57;4.43;;;12.20;99.90;;;;;;4893021;29;20409;-61
2022/05/24 06:25:01;;;;;;;15.07;6.13;;;12.20;99.90;;;;;;4892109;29;20036;-60
2022/05/24 06:27:26;;;;;;;11.60;4.68;;;12.20;99.90;;;;;;4870206;29;20558;-60
2022/05/24 06:29:52;;;;;;;11.38;4.75;;;12.20;99.90;;;;;;4892391;29;20243;-60
2022/05/24 06:32:18;;;;;;;13.75;5.47;;;12.20;99.90;;;;;;4891495;29;20025;-60
2022/05/24 06:34:45;;;;;;;10.90;5.00;;;12.20;99.90;;;;;;4890463;29;20432;-61
2022/05/24 06:37:11;;;;;;;15.43;5.30;;;12.20;99.90;;;;;;4891414;29;20037;-60
2022/05/24 06:39:36;;;;;;;15.00;4.78;;;12.20;99.90;;;;;;4891968;29;20127;-60
2022/05/24 06:42:02;;;;;;;14.10;5.07;;;12.20;99.90;;;;;;4891517;29;20134;-61
2022/05/24 06:44:28;;;;;;;13.50;5.25;;;12.20;99.90;;;;;;4892114;29;20080;-60
2022/05/24 06:46:54;;;;;;;11.10;4.70;;;12.20;99.90;;;;;;4891363;29;20493;-60
2022/05/24 06:49:19;;;;;;;12.98;4.35;;;12.10;99.90;;;;;;4887561;29;20116;-60
2022/05/24 06:51:45;;;;;;;12.63;5.22;;;12.10;99.90;;;;;;4891938;29;20103;-60
2022/05/24 06:54:11;;;;;;;11.15;4.07;;;12.10;99.90;;;;;;4891703;29;20497;-60
2022/05/24 06:56:36;;;;;;;11.90;4.32;;;12.10;99.90;;;;;;4891903;29;20036;-60
2022/05/24 07:04:30;;;;;;;10.48;3.55;;;11.90;99.90;;;;;;4890256;29;20120;-60
2022/05/24 07:06:56;;;;;;;11.45;4.55;;;11.80;99.90;;;;;;4892205;29;20044;-60
2022/05/24 07:09:23;;;;;;;11.68;4.38;;;11.80;99.90;;;;;;4874912;29;20024;-60
2022/05/24 07:11:49;;;;;;;9.85;3.28;;;11.80;99.90;;;;;;4891386;29;20041;-60
2022/05/24 07:14:15;;;;;;;10.27;4.20;;;11.80;99.90;;;;;;4890869;29;20076;-60
2022/05/24 07:16:41;;;;;;;10.00;3.80;;;11.90;99.90;;;;;;4891299;29;20072;-60
2022/05/24 07:19:06;;;;;;;10.95;4.50;;;11.90;99.90;;;;;;4891427;29;20068;-61
2022/05/24 07:21:32;;;;;;;12.57;4.68;;;12.00;99.90;;;;;;4891109;29;20508;-61
2022/05/24 07:23:57;;;;;;;11.38;4.72;;;12.20;99.90;;;;;;4891117;29;20063;-60
2022/05/24 07:26:24;;;;;;;13.15;5.07;;;12.40;99.90;;;;;;4890345;29;20028;-60
2022/05/24 07:28:50;;;;;;;16.50;4.68;;;12.60;99.90;;;;;;4891191;29;20486;-60
2022/05/24 07:31:16;;;;;;;10.63;3.60;;;12.40;99.90;;;;;;4890367;29;20024;-61
2022/05/24 07:33:41;;;;;;;11.05;3.53;;;12.20;99.90;;;;;;4880517;29;20597;-60
2022/05/24 07:36:07;;;;;;;8.10;3.50;;;12.20;99.90;;;;;;4890510;29;20537;-61
2022/05/24 07:38:34;;;;;;;9.30;3.35;;;12.20;99.90;;;;;;4892973;29;20029;-60
2022/05/24 07:46:29;;;;;;;9.98;3.10;;;12.30;99.90;;;;;;4888666;29;20039;-60
2022/05/24 07:48:55;;;;;;;9.10;3.10;;;12.30;99.90;;;;;;4892335;29;20024;-60
2022/05/24 07:51:21;;;;;;;6.97;3.10;;;12.30;99.90;;;;;;4890506;29;20041;-60
2022/05/24 07:53:47;;;;;;;7.70;2.70;;;12.50;99.90;;;;;;4890713;29;20040;-60
2022/05/24 07:56:15;;;;;;;10.00;3.10;;;12.40;99.90;;;;;;4890212;29;20033;-60
2022/05/24 07:58:44;;;;;;;10.45;2.88;;;12.50;99.90;;;;;;4881974;29;20065;-60
2022/05/24 08:01:10;;;;;;;6.47;2.17;;;12.70;99.90;;;;;;4890247;29;20032;-60
2022/05/24 08:03:38;;;;;;;9.10;2.88;;;12.70;99.90;;;;;;4888376;29;20324;-61
2022/05/24 08:06:04;;;;;;;11.02;2.45;;;12.70;99.90;;;;;;4889104;29;20044;-61
2022/05/24 08:08:30;;;;;;;5.15;1.73;;;12.90;99.90;;;;;;4890514;29;20604;-60
2022/05/24 08:10:56;;;;;;;6.32;2.00;;;12.90;99.90;;;;;;4890854;29;20116;-60
2022/05/24 08:13:22;;;;;;;9.40;2.10;;;13.00;99.90;;;;;;4890024;29;20488;-60
2022/05/24 08:15:52;;;;;;;7.30;2.08;;;13.00;99.90;;;;;;4873608;29;20039;-60
2022/05/24 08:18:19;;;;;;;4.50;1.60;;;13.20;99.90;;;;;;4890411;29;20088;-59
2022/05/24 08:20:45;;;;;;;4.80;1.73;;;14.30;99.90;;;;;;4893303;29;20060;-60
2022/05/24 08:23:11;;;;;;;4.63;1.60;;;14.60;99.90;;;;;;4892757;29;20028;-61
2022/05/24 08:25:38;;;;;;;5.82;1.92;;;15.30;99.90;;;;;;4893495;29;20033;-60
2022/05/24 08:28:07;;;;;;;4.97;1.48;;;15.60;99.90;;;;;;4893175;29;20025;-60
2022/05/24 08:30:34;;;;;;;7.20;1.88;;;16.00;99.90;;;;;;4893783;29;20029;-60
2022/05/24 08:33:04;;;;;;;5.10;1.80;;;16.50;99.90;;;;;;4891472;29;20024;-59
2022/05/24 08:35:34;;;;;;;5.78;1.83;;;16.30;99.90;;;;;;4892862;29;20028;-60
2022/05/24 08:38:02;;;;;;;5.47;1.80;;;15.80;99.90;;;;;;4870056;29;20036;-59
2022/05/24 08:40:28;;;;;;;7.20;2.08;;;15.70;99.90;;;;;;4890361;29;20560;-61
2022/05/24 08:43:12;;;;;;;7.40;2.10;;;15.40;99.90;;;;;;4890526;29;20036;-60
2022/05/24 08:48:44;;;;;;;6.55;2.10;;;15.80;99.90;;;;;;4890148;29;20055;-60
2022/05/24 08:51:19;;;;;;;9.07;2.70;;;15.70;99.90;;;;;;4889742;29;20056;-60
2022/05/24 08:53:47;;;;;;;7.90;2.88;;;15.50;99.90;;;;;;4890312;29;20490;-59
2022/05/24 08:56:23;;;;;;;8.60;2.95;;;14.80;99.90;;;;;;4889821;29;20052;-60
2022/05/24 08:58:55;;;;;;;6.70;2.80;;;15.10;99.90;;;;;;4890433;29;20477;-60
2022/05/24 09:01:25;;;;;;;5.85;2.15;;;16.00;99.90;;;;;;4886785;29;20033;-60
2022/05/24 09:03:51;;;;;;;6.53;2.45;;;16.60;99.90;;;;;;4887872;29;20204;-61
2022/05/24 09:06:31;;;;;;;6.50;2.55;;;16.30;99.90;;;;;;4889304;29;20127;-60
2022/05/24 09:09:02;;;;;;;7.32;2.40;;;16.90;99.90;;;;;;4889801;29;20028;-60
2022/05/24 09:11:52;;;;;;;7.18;2.25;;;17.20;99.90;;;;;;4889586;29;20120;-60
2022/05/24 09:15:03;;;;;;;5.65;2.17;;;17.20;99.90;;;;;;4890359;29;20024;-60
2022/05/24 09:17:56;;;;;;;7.00;2.40;;;17.10;99.90;;;;;;4873669;29;20497;-60
2022/05/24 09:20:24;;;;;;;6.75;2.40;;;16.30;99.90;;;;;;4887162;29;20487;-60
2022/05/24 09:23:10;;;;;;;6.25;2.50;;;15.90;99.90;;;;;;4890211;29;20037;-60
2022/05/24 09:25:36;;;;;;;6.63;2.83;;;16.00;99.90;;;;;;4877768;29;20354;-60
2022/05/24 09:28:02;;;;;;;6.85;2.45;;;15.50;99.90;;;;;;4890038;29;20033;-60
2022/05/24 09:30:31;;;;;;;8.95;2.95;;;15.50;99.90;;;;;;4889399;29;20044;-61
2022/05/24 09:33:19;;;;;;;6.57;2.95;;;16.60;99.90;;;;;;4888150;29;20447;-60
2022/05/24 09:35:44;;;;;;;7.72;2.60;;;16.40;99.90;;;;;;4888728;29;20029;-60
2022/05/24 09:38:16;;;;;;;7.43;2.83;;;16.10;99.90;;;;;;4889402;29;20033;-60
2022/05/24 09:40:58;;;;;;;8.43;2.70;;;15.90;99.90;;;;;;4888634;29;20120;-60
2022/05/24 09:43:33;;;;;;;6.55;2.50;;;15.80;99.90;;;;;;4892946;29;20390;-61
2022/05/24 09:46:27;;;;;;;6.30;2.70;;;15.60;99.90;;;;;;4890529;29;20373;-60
2022/05/24 09:49:12;;;;;;;5.60;1.88;;;15.50;99.90;;;;;;4893103;29;20048;-60
2022/05/24 09:51:41;;;;;;;6.80;2.40;;;15.40;99.90;;;;;;4874744;29;20060;-59
2022/05/24 09:54:20;;;;;;;6.32;2.30;;;15.50;99.90;;;;;;4893456;29;20040;-60
2022/05/24 09:57:07;;;;;;;9.93;2.40;;;15.60;99.90;;;;;;4896076;29;20020;-59
2022/05/24 09:59:34;;;;;;;7.93;2.50;;;16.00;99.90;;;;;;4895081;29;20032;-61
2022/05/24 10:02:01;;;;;;;8.57;2.72;;;16.50;99.90;;;;;;4893113;29;20028;-59
2022/05/24 10:04:39;;;;;;;5.93;2.10;;;16.90;99.90;;;;;;4890795;29;20057;-61
2022/05/24 10:07:30;;;;;;;6.50;1.90;;;16.60;99.90;;;;;;4893837;29;20041;-60
2022/05/24 10:10:14;;;;;;;7.03;2.25;;;16.60;99.90;;;;;;4892307;29;20032;-59
2022/05/24 10:12:54;;;;;;;6.25;1.80;;;16.80;99.90;;;;;;4893088;29;20032;-60
2022/05/24 10:15:43;;;;;;;5.80;1.95;;;16.50;99.90;;;;;;4889308;29;20077;-60
2022/05/24 10:18:33;;;;;;;6.28;2.25;;;16.10;99.90;;;;;;4893602;29;20079;-60
2022/05/24 10:21:18;;;;;;;;;;;16.10;99.90;;;;;;4893118;29;20133;-60
2022/05/24 10:24:02;;;;;;;6.05;2.00;;;16.00;99.90;;;;;;4893154;29;20423;-60
2022/05/24 10:26:56;;;;;;;7.32;2.03;;;16.20;99.90;;;;;;4891909;29;20040;-60
2022/05/24 10:29:37;;;;;;;5.80;2.50;;;16.30;99.90;;;;;;4890900;29;20029;-60
2022/05/24 10:38:17;;;;;;;6.63;1.70;;;17.00;99.90;;;;;;4889864;29;20412;-60
2022/05/24 10:38:18;;;;;;;4.90;1.67;;;17.60;99.90;;;;;;4892964;29;20095;-59
2022/05/24 10:41:11;;;;;;;6.50;1.80;;;17.40;99.90;;;;;;4893931;29;20043;-60
2022/05/24 10:43:58;;;;;;;5.38;1.65;;;17.50;99.90;;;;;;4894517;29;20068;-60
2022/05/24 10:46:37;;;;;;;4.53;1.40;;;17.90;99.90;;;;;;4893189;29;20048;-59
2022/05/24 10:49:28;;;;;;;6.53;1.85;;;18.50;99.90;;;;;;4892734;29;20044;-60
2022/05/24 10:51:53;;;;;;;4.85;1.58;;;20.30;99.90;;;;;;4892794;29;20038;-60
2022/05/24 10:54:40;;;;;;;5.25;1.90;;;20.20;99.90;;;;;;4895323;29;20111;-59
2022/05/24 10:57:25;;;;;;;4.72;1.77;;;18.90;99.90;;;;;;4891159;29;20028;-62
2022/05/24 11:00:02;;;;;;;6.32;1.60;;;18.60;99.90;;;;;;4892298;29;20080;-62
2022/05/24 11:02:39;;;;;;;5.85;1.52;;;18.50;99.90;;;;;;4890647;29;20368;-62
2022/05/24 11:05:32;;;;;;;6.43;1.80;;;19.10;99.90;;;;;;4891890;29;20036;-62
2022/05/24 11:08:26;;;;;;;6.07;1.83;;;19.10;99.90;;;;;;4889192;29;20037;-63
2022/05/24 11:10:52;;;;;;;5.78;1.48;;;19.90;99.90;;;;;;4891451;29;20031;-62
2022/05/24 11:13:28;;;;;;;4.20;1.50;;;20.60;99.90;;;;;;4891748;29;20032;-62
2022/05/24 11:16:00;;;;;;;3.03;1.13;;;21.60;99.90;;;;;;4892661;29;20436;-63
2022/05/24 11:18:27;;;;;;;4.20;1.20;;;22.10;99.90;;;;;;4893178;29;20029;-63
2022/05/24 11:21:09;;;;;;;4.22;1.13;;;21.00;98.40;;;;;;4892086;29;20101;-62
2022/05/24 11:23:45;;;;;;;4.85;1.27;;;21.90;97.30;;;;;;4891644;29;20079;-62
2022/05/24 11:26:24;;;;;;;4.40;1.40;;;22.40;97.40;;;;;;4889838;29;20522;-62
2022/05/24 11:29:24;;;;;;;6.10;1.60;;;23.10;94.20;;;;;;4892081;29;20115;-62
2022/05/24 11:31:58;;;;;;;4.60;1.27;;;22.80;94.30;;;;;;4890542;29;20315;-62
2022/05/24 11:34:30;;;;;;;3.45;1.23;;;;;;;;;;4892479;29;20099;-62
2022/05/24 11:37:11;;;;;;;7.18;1.40;;;21.80;94.00;;;;;;4890450;29;20043;-62
2022/05/24 11:39:38;;;;;;;4.80;1.33;;;;;;;;;;4891186;29;20039;-63
2022/05/24 11:42:22;;;;;;;3.08;1.20;;;22.90;92.70;;;;;;4893173;29;20024;-62
2022/05/24 11:44:49;;;;;;;3.53;1.10;;;23.90;91.90;;;;;;4890167;29;20548;-63
2022/05/24 11:47:33;;;;;;;6.90;1.30;;;23.70;91.50;;;;;;4891262;29;20032;-62
2022/05/24 11:50:21;;;;;;;3.72;1.27;;;22.00;91.40;;;;;;4889890;29;20063;-62
2022/05/24 11:53:05;;;;;;;6.18;1.42;;;20.20;93.90;;;;;;4888540;29;20441;-62
2022/05/24 11:55:42;;;;;;;5.65;1.52;;;;;;;;;;4890153;29;20153;-62
2022/05/24 11:58:22;;;;;;;4.05;1.30;;;18.40;98.40;;;;;;4891234;29;20043;-62
2022/05/24 12:01:19;;;;;;;4.25;1.40;;;17.80;99.90;;;;;;4891292;29;20120;-62
2022/05/24 12:09:59;;;;;;;4.60;1.50;;;17.80;99.90;;;;;;4889267;29;20461;-62
2022/05/24 12:12:30;;;;;;;5.13;1.60;;;17.20;99.90;;;;;;4877934;29;20186;-63
2022/05/24 12:15:25;;;;;;;7.35;2.10;;;17.70;99.90;;;;;;4891257;29;20036;-62
2022/05/24 12:17:58;;;;;;;4.32;1.50;;;18.50;99.90;;;;;;4826957;29;20085;-62
2022/05/24 12:20:28;;;;;;;5.70;1.75;;;19.20;99.90;;;;;;4890604;29;20088;-64
2022/05/24 12:23:14;;;;;;;6.10;1.38;;;20.40;99.70;;;;;;4892523;29;20339;-59
2022/05/24 12:26:02;;;;;;;4.50;1.42;;;21.20;98.30;;;;;;4889550;29;20043;-60
2022/05/24 12:28:36;;;;;;;5.65;1.40;;;20.50;97.20;;;;;;4889089;29;20037;-61
2022/05/24 12:31:07;;;;;;;5.68;1.50;;;20.70;97.50;;;;;;4887412;29;20042;-61
2022/05/24 12:33:35;;;;;;;5.82;1.25;;;21.60;96.70;;;;;;4888792;29;20032;-61
2022/05/24 12:36:22;;;;;;;3.08;1.00;;;21.60;95.90;;;;;;4891356;29;20120;-60
2022/05/24 12:38:56;;;;;;;4.53;1.30;;;21.50;93.30;;;;;;4889222;29;20481;-61
2022/05/24 12:41:34;;;;;;;5.25;1.27;;;22.20;92.90;;;;;;4890325;29;20111;-61
2022/05/24 12:44:04;;;;;;;3.70;1.20;;;21.50;93.70;;;;;;4888365;29;20029;-60
2022/05/24 12:46:34;;;;;;;5.22;1.35;;;21.10;92.10;;;;;;4890016;29;20120;-60
2022/05/24 12:49:02;;;;;;;;;;;20.60;95.00;;;;;;4877552;29;20127;-59
2022/05/24 12:51:27;;;;;;;5.68;1.33;;;20.70;94.90;;;;;;4886877;29;19911;-61
2022/05/24 12:53:53;;;;;;;7.50;1.20;;;20.60;93.90;;;;;;4893172;29;20119;-61
2022/05/24 12:56:22;;;;;;;4.50;1.10;;;20.40;95.00;;;;;;4893663;29;20025;-60
2022/05/24 12:58:50;;;;;;;2.53;1.23;;;19.80;94.50;;;;;;4890963;29;20127;-60
2022/05/24 13:01:28;;;;;;;3.20;1.30;;;19.40;93.80;;;;;;4891014;29;20043;-61
2022/05/24 13:04:16;;;;;;;3.10;1.10;;;19.40;93.60;;;;;;4888512;29;20104;-60
2022/05/24 13:06:43;;;;;;;2.65;1.00;;;19.70;93.10;;;;;;4887233;29;20702;-59
2022/05/24 13:09:25;;;;;;;3.53;1.00;;;20.90;91.70;;;;;;4890656;29;20028;-59
2022/05/24 13:11:56;;;;;;;5.18;1.20;;;20.70;92.30;;;;;;4890963;29;20029;-59
2022/05/24 13:14:59;;;;;;;5.40;1.13;;;20.30;91.60;;;;;;4890340;29;20454;-59
2022/05/24 13:17:30;;;;;;;3.88;1.10;;;20.10;93.00;;;;;;4895977;29;20093;-60
2022/05/24 13:20:06;;;;;;;5.25;1.15;;;19.60;94.50;;;;;;4891272;29;20569;-59
2022/05/24 13:22:53;;;;;;;3.80;1.10;;;19.20;94.10;;;;;;4893262;29;20108;-59
2022/05/24 13:25:42;;;;;;;2.90;1.10;;;19.10;94.00;;;;;;4892775;29;20036;-59
2022/05/24 13:28:08;;;;;;;3.92;1.00;;;19.50;94.20;;;;;;4893832;29;20088;-59
2022/05/24 13:33:35;;;;;;;3.45;1.20;;;19.00;95.10;;;;;;4892269;29;20044;-59
2022/05/24 13:36:11;;;;;;;3.03;1.08;;;19.00;96.10;;;;;;4896929;29;20054;-59
2022/05/24 13:38:39;;;;;;;6.45;1.35;;;18.60;96.30;;;;;;4894400;29;20107;-59